sensor_id;sensor_type;location;lat;lon;timestamp;P1;durP1;ratioP1;P2;durP2;ratioP2
83562;SDS011;73535;52.500;13.482;2024-01-07T00:00:59;3.45;;;2.38;;
83562;SDS011;73535;52.500;13.482;2024-01-07T00:03:25;3.80;;;2.60;;
83562;SDS011;73535;52.500;13.482;2024-01-07T00:05:50;4.68;;;2.78;;
83562;SDS011;73535;52.500;13.482;2024-01-07T00:08:16;3.53;;;2.55;;
83562;SDS011;73535;52.500;13.482;2024-01-07T00:10:41;5.72;;;2.50;;
83562;SDS011;73535;52.500;13.482;2024-01-07T00:13:06;4.38;;;2.60;;
83562;SDS011;73535;52.500;13.482;2024-01-07T00:15:31;5.65;;;2.30;;
83562;SDS011;73535;52.500;13.482;2024-01-07T00:17:57;3.83;;;2.17;;
83562;SDS011;73535;52.500;13.482;2024-01-07T00:20:22;4.00;;;2.35;;
83562;SDS011;73535;52.500;13.482;2024-01-07T00:22:47;4.10;;;2.15;;
83562;SDS011;73535;52.500;13.482;2024-01-07T00:25:12;4.38;;;2.30;;
83562;SDS011;73535;52.500;13.482;2024-01-07T00:27:38;4.75;;;2.50;;
83562;SDS011;73535;52.500;13.482;2024-01-07T00:30:03;3.38;;;2.42;;
83562;SDS011;73535;52.500;13.482;2024-01-07T00:32:28;3.90;;;2.42;;
83562;SDS011;73535;52.500;13.482;2024-01-07T00:34:54;5.57;;;2.63;;
83562;SDS011;73535;52.500;13.482;2024-01-07T00:37:19;5.07;;;2.63;;
83562;SDS011;73535;52.500;13.482;2024-01-07T00:39:44;5.97;;;2.88;;
83562;SDS011;73535;52.500;13.482;2024-01-07T00:42:10;2.88;;;2.15;;
83562;SDS011;73535;52.500;13.482;2024-01-07T00:44:36;4.28;;;2.47;;
83562;SDS011;73535;52.500;13.482;2024-01-07T00:47:02;5.30;;;2.40;;
83562;SDS011;73535;52.500;13.482;2024-01-07T00:49:27;5.38;;;2.25;;
83562;SDS011;73535;52.500;13.482;2024-01-07T00:51:53;4.07;;;2.10;;
83562;SDS011;73535;52.500;13.482;2024-01-07T00:54:18;4.55;;;2.20;;
83562;SDS011;73535;52.500;13.482;2024-01-07T00:56:43;4.30;;;2.22;;
83562;SDS011;73535;52.500;13.482;2024-01-07T00:59:08;3.05;;;2.00;;
83562;SDS011;73535;52.500;13.482;2024-01-07T01:01:34;3.22;;;1.67;;
83562;SDS011;73535;52.500;13.482;2024-01-07T01:03:59;2.70;;;1.80;;
83562;SDS011;73535;52.500;13.482;2024-01-07T01:06:24;4.53;;;2.25;;
83562;SDS011;73535;52.500;13.482;2024-01-07T01:08:49;1.98;;;1.60;;
83562;SDS011;73535;52.500;13.482;2024-01-07T01:11:15;3.60;;;2.10;;
83562;SDS011;73535;52.500;13.482;2024-01-07T01:13:40;2.75;;;1.60;;
83562;SDS011;73535;52.500;13.482;2024-01-07T01:16:05;3.42;;;1.45;;
83562;SDS011;73535;52.500;13.482;2024-01-07T01:18:31;2.80;;;1.50;;
83562;SDS011;73535;52.500;13.482;2024-01-07T01:20:56;3.47;;;1.50;;
83562;SDS011;73535;52.500;13.482;2024-01-07T01:23:21;3.45;;;2.00;;
83562;SDS011;73535;52.500;13.482;2024-01-07T01:25:46;3.22;;;1.88;;
83562;SDS011;73535;52.500;13.482;2024-01-07T01:28:12;5.30;;;1.70;;
83562;SDS011;73535;52.500;13.482;2024-01-07T01:30:37;2.75;;;1.50;;
83562;SDS011;73535;52.500;13.482;2024-01-07T01:33:02;4.60;;;1.50;;
83562;SDS011;73535;52.500;13.482;2024-01-07T01:35:28;2.47;;;1.83;;
83562;SDS011;73535;52.500;13.482;2024-01-07T01:37:53;2.65;;;1.63;;
83562;SDS011;73535;52.500;13.482;2024-01-07T01:40:19;3.05;;;1.65;;
83562;SDS011;73535;52.500;13.482;2024-01-07T01:42:45;3.63;;;1.63;;
83562;SDS011;73535;52.500;13.482;2024-01-07T01:45:11;4.20;;;1.92;;
83562;SDS011;73535;52.500;13.482;2024-01-07T01:47:37;3.90;;;1.52;;
83562;SDS011;73535;52.500;13.482;2024-01-07T01:50:02;3.50;;;1.73;;
83562;SDS011;73535;52.500;13.482;2024-01-07T01:52:28;3.72;;;1.80;;
83562;SDS011;73535;52.500;13.482;2024-01-07T01:54:53;3.30;;;1.60;;
83562;SDS011;73535;52.500;13.482;2024-01-07T01:57:19;2.72;;;1.63;;
83562;SDS011;73535;52.500;13.482;2024-01-07T01:59:47;2.83;;;1.63;;
83562;SDS011;73535;52.500;13.482;2024-01-07T02:02:13;4.63;;;2.00;;
83562;SDS011;73535;52.500;13.482;2024-01-07T02:04:39;4.15;;;2.20;;
83562;SDS011;73535;52.500;13.482;2024-01-07T02:07:04;2.88;;;1.58;;
83562;SDS011;73535;52.500;13.482;2024-01-07T02:09:29;2.95;;;1.80;;
83562;SDS011;73535;52.500;13.482;2024-01-07T02:12:04;3.80;;;1.92;;
83562;SDS011;73535;52.500;13.482;2024-01-07T02:14:30;4.20;;;1.88;;
83562;SDS011;73535;52.500;13.482;2024-01-07T02:16:55;3.00;;;1.90;;
83562;SDS011;73535;52.500;13.482;2024-01-07T02:19:21;3.80;;;1.40;;
83562;SDS011;73535;52.500;13.482;2024-01-07T02:21:46;3.20;;;1.60;;
83562;SDS011;73535;52.500;13.482;2024-01-07T02:24:15;2.58;;;1.67;;
83562;SDS011;73535;52.500;13.482;2024-01-07T02:26:41;2.17;;;1.85;;
83562;SDS011;73535;52.500;13.482;2024-01-07T02:29:06;2.67;;;1.80;;
83562;SDS011;73535;52.500;13.482;2024-01-07T02:31:31;2.92;;;1.70;;
83562;SDS011;73535;52.500;13.482;2024-01-07T02:33:56;3.00;;;1.65;;
83562;SDS011;73535;52.500;13.482;2024-01-07T02:36:22;6.10;;;1.95;;
83562;SDS011;73535;52.500;13.482;2024-01-07T02:38:47;2.38;;;1.70;;
83562;SDS011;73535;52.500;13.482;2024-01-07T02:41:12;3.55;;;1.85;;
83562;SDS011;73535;52.500;13.482;2024-01-07T02:43:37;3.30;;;1.60;;
83562;SDS011;73535;52.500;13.482;2024-01-07T02:46:03;2.83;;;1.75;;
83562;SDS011;73535;52.500;13.482;2024-01-07T02:48:28;2.45;;;1.33;;
83562;SDS011;73535;52.500;13.482;2024-01-07T02:50:53;3.67;;;1.92;;
83562;SDS011;73535;52.500;13.482;2024-01-07T02:53:19;3.47;;;2.00;;
83562;SDS011;73535;52.500;13.482;2024-01-07T02:55:44;3.67;;;1.77;;
83562;SDS011;73535;52.500;13.482;2024-01-07T02:58:09;2.70;;;1.67;;
83562;SDS011;73535;52.500;13.482;2024-01-07T03:00:34;2.38;;;1.40;;
83562;SDS011;73535;52.500;13.482;2024-01-07T03:03:00;3.20;;;1.85;;
83562;SDS011;73535;52.500;13.482;2024-01-07T03:05:25;3.42;;;1.70;;
83562;SDS011;73535;52.500;13.482;2024-01-07T03:07:50;3.03;;;1.95;;
83562;SDS011;73535;52.500;13.482;2024-01-07T03:10:15;2.47;;;1.73;;
83562;SDS011;73535;52.500;13.482;2024-01-07T03:12:41;2.92;;;1.70;;
83562;SDS011;73535;52.500;13.482;2024-01-07T03:15:06;2.67;;;1.60;;
83562;SDS011;73535;52.500;13.482;2024-01-07T03:17:33;2.90;;;1.85;;
83562;SDS011;73535;52.500;13.482;2024-01-07T03:19:59;4.03;;;2.00;;
83562;SDS011;73535;52.500;13.482;2024-01-07T03:22:24;3.38;;;1.90;;
83562;SDS011;73535;52.500;13.482;2024-01-07T03:24:49;3.63;;;2.05;;
83562;SDS011;73535;52.500;13.482;2024-01-07T03:27:14;2.70;;;1.70;;
83562;SDS011;73535;52.500;13.482;2024-01-07T03:29:39;3.63;;;2.30;;
83562;SDS011;73535;52.500;13.482;2024-01-07T03:32:05;3.45;;;2.08;;
83562;SDS011;73535;52.500;13.482;2024-01-07T03:34:30;2.30;;;1.70;;
83562;SDS011;73535;52.500;13.482;2024-01-07T03:36:56;2.95;;;1.83;;
83562;SDS011;73535;52.500;13.482;2024-01-07T03:39:22;2.92;;;2.10;;
83562;SDS011;73535;52.500;13.482;2024-01-07T03:41:47;3.38;;;1.70;;
83562;SDS011;73535;52.500;13.482;2024-01-07T03:44:13;4.13;;;1.70;;
83562;SDS011;73535;52.500;13.482;2024-01-07T03:46:38;2.22;;;1.63;;
83562;SDS011;73535;52.500;13.482;2024-01-07T03:49:03;3.03;;;1.77;;
83562;SDS011;73535;52.500;13.482;2024-01-07T03:51:28;3.25;;;1.83;;
83562;SDS011;73535;52.500;13.482;2024-01-07T03:53:54;2.85;;;1.75;;
83562;SDS011;73535;52.500;13.482;2024-01-07T03:56:19;2.90;;;1.92;;
83562;SDS011;73535;52.500;13.482;2024-01-07T03:58:44;2.72;;;1.90;;
83562;SDS011;73535;52.500;13.482;2024-01-07T04:01:09;2.30;;;1.77;;
83562;SDS011;73535;52.500;13.482;2024-01-07T04:03:34;3.70;;;1.92;;
83562;SDS011;73535;52.500;13.482;2024-01-07T04:06:00;2.53;;;2.00;;
83562;SDS011;73535;52.500;13.482;2024-01-07T04:08:25;2.90;;;1.65;;
83562;SDS011;73535;52.500;13.482;2024-01-07T04:10:50;3.03;;;1.85;;
83562;SDS011;73535;52.500;13.482;2024-01-07T04:13:15;2.63;;;1.60;;
83562;SDS011;73535;52.500;13.482;2024-01-07T04:15:41;1.85;;;1.35;;
83562;SDS011;73535;52.500;13.482;2024-01-07T04:18:06;2.13;;;1.80;;
83562;SDS011;73535;52.500;13.482;2024-01-07T04:20:31;4.47;;;2.20;;
83562;SDS011;73535;52.500;13.482;2024-01-07T04:22:57;2.50;;;1.40;;
83562;SDS011;73535;52.500;13.482;2024-01-07T04:25:23;2.88;;;1.80;;
83562;SDS011;73535;52.500;13.482;2024-01-07T04:27:48;3.28;;;1.50;;
83562;SDS011;73535;52.500;13.482;2024-01-07T04:30:13;2.35;;;1.60;;
83562;SDS011;73535;52.500;13.482;2024-01-07T04:32:39;2.88;;;1.63;;
83562;SDS011;73535;52.500;13.482;2024-01-07T04:35:04;2.70;;;1.58;;
83562;SDS011;73535;52.500;13.482;2024-01-07T04:37:31;3.22;;;1.92;;
83562;SDS011;73535;52.500;13.482;2024-01-07T04:39:56;2.25;;;1.70;;
83562;SDS011;73535;52.500;13.482;2024-01-07T04:42:21;2.90;;;1.63;;
83562;SDS011;73535;52.500;13.482;2024-01-07T04:44:46;3.10;;;1.70;;
83562;SDS011;73535;52.500;13.482;2024-01-07T04:47:25;3.00;;;1.65;;
83562;SDS011;73535;52.500;13.482;2024-01-07T04:49:52;3.33;;;1.65;;
83562;SDS011;73535;52.500;13.482;2024-01-07T04:52:18;2.33;;;1.73;;
83562;SDS011;73535;52.500;13.482;2024-01-07T04:54:43;2.90;;;1.83;;
83562;SDS011;73535;52.500;13.482;2024-01-07T04:57:08;3.13;;;1.92;;
83562;SDS011;73535;52.500;13.482;2024-01-07T04:59:33;3.75;;;1.83;;
83562;SDS011;73535;52.500;13.482;2024-01-07T05:01:59;2.88;;;1.60;;
83562;SDS011;73535;52.500;13.482;2024-01-07T05:04:24;2.60;;;1.48;;
83562;SDS011;73535;52.500;13.482;2024-01-07T05:06:49;3.58;;;1.60;;
83562;SDS011;73535;52.500;13.482;2024-01-07T05:09:15;2.90;;;1.70;;
83562;SDS011;73535;52.500;13.482;2024-01-07T05:11:40;2.83;;;1.83;;
83562;SDS011;73535;52.500;13.482;2024-01-07T05:14:05;3.65;;;2.25;;
83562;SDS011;73535;52.500;13.482;2024-01-07T05:16:30;3.05;;;1.63;;
83562;SDS011;73535;52.500;13.482;2024-01-07T05:18:56;2.67;;;1.90;;
83562;SDS011;73535;52.500;13.482;2024-01-07T05:21:22;3.10;;;1.77;;
83562;SDS011;73535;52.500;13.482;2024-01-07T05:23:47;3.45;;;1.83;;
83562;SDS011;73535;52.500;13.482;2024-01-07T05:26:12;4.13;;;1.70;;
83562;SDS011;73535;52.500;13.482;2024-01-07T05:28:37;3.22;;;1.80;;
83562;SDS011;73535;52.500;13.482;2024-01-07T05:31:03;3.08;;;1.83;;
83562;SDS011;73535;52.500;13.482;2024-01-07T05:33:28;3.38;;;1.80;;
83562;SDS011;73535;52.500;13.482;2024-01-07T05:35:53;3.63;;;2.03;;
83562;SDS011;73535;52.500;13.482;2024-01-07T05:38:19;4.20;;;2.40;;
83562;SDS011;73535;52.500;13.482;2024-01-07T05:40:44;2.75;;;1.80;;
83562;SDS011;73535;52.500;13.482;2024-01-07T05:43:09;2.40;;;1.90;;
83562;SDS011;73535;52.500;13.482;2024-01-07T05:45:34;2.70;;;1.90;;
83562;SDS011;73535;52.500;13.482;2024-01-07T05:47:59;3.13;;;1.88;;
83562;SDS011;73535;52.500;13.482;2024-01-07T05:50:25;3.15;;;1.90;;
83562;SDS011;73535;52.500;13.482;2024-01-07T05:52:50;3.28;;;2.00;;
83562;SDS011;73535;52.500;13.482;2024-01-07T05:55:15;2.85;;;1.80;;
83562;SDS011;73535;52.500;13.482;2024-01-07T05:57:40;3.03;;;1.75;;
83562;SDS011;73535;52.500;13.482;2024-01-07T06:00:06;2.22;;;1.65;;
83562;SDS011;73535;52.500;13.482;2024-01-07T06:02:34;4.10;;;2.33;;
83562;SDS011;73535;52.500;13.482;2024-01-07T06:04:59;2.97;;;2.17;;
83562;SDS011;73535;52.500;13.482;2024-01-07T06:07:24;3.72;;;1.90;;
83562;SDS011;73535;52.500;13.482;2024-01-07T06:09:50;4.05;;;2.03;;
83562;SDS011;73535;52.500;13.482;2024-01-07T06:12:15;3.65;;;2.05;;
83562;SDS011;73535;52.500;13.482;2024-01-07T06:14:40;2.92;;;2.17;;
83562;SDS011;73535;52.500;13.482;2024-01-07T06:17:05;3.10;;;2.08;;
83562;SDS011;73535;52.500;13.482;2024-01-07T06:19:31;2.80;;;2.05;;
83562;SDS011;73535;52.500;13.482;2024-01-07T06:21:56;4.45;;;2.45;;
83562;SDS011;73535;52.500;13.482;2024-01-07T06:24:21;2.92;;;1.92;;
83562;SDS011;73535;52.500;13.482;2024-01-07T06:26:46;4.68;;;2.28;;
83562;SDS011;73535;52.500;13.482;2024-01-07T06:29:12;4.38;;;2.35;;
83562;SDS011;73535;52.500;13.482;2024-01-07T06:31:42;3.60;;;2.00;;
83562;SDS011;73535;52.500;13.482;2024-01-07T06:34:09;4.07;;;2.42;;
83562;SDS011;73535;52.500;13.482;2024-01-07T06:36:38;3.70;;;2.42;;
83562;SDS011;73535;52.500;13.482;2024-01-07T06:39:03;3.67;;;2.40;;
83562;SDS011;73535;52.500;13.482;2024-01-07T06:41:30;3.80;;;1.60;;
83562;SDS011;73535;52.500;13.482;2024-01-07T06:43:55;3.40;;;1.60;;
83562;SDS011;73535;52.500;13.482;2024-01-07T06:46:21;3.55;;;2.50;;
83562;SDS011;73535;52.500;13.482;2024-01-07T06:48:47;4.65;;;2.70;;
83562;SDS011;73535;52.500;13.482;2024-01-07T06:51:13;3.38;;;2.45;;
83562;SDS011;73535;52.500;13.482;2024-01-07T06:53:39;3.17;;;2.17;;
83562;SDS011;73535;52.500;13.482;2024-01-07T06:56:04;3.20;;;2.03;;
83562;SDS011;73535;52.500;13.482;2024-01-07T06:58:29;4.30;;;2.38;;
83562;SDS011;73535;52.500;13.482;2024-01-07T07:00:54;3.80;;;1.60;;
83562;SDS011;73535;52.500;13.482;2024-01-07T07:03:20;3.65;;;1.98;;
83562;SDS011;73535;52.500;13.482;2024-01-07T07:05:45;3.45;;;2.00;;
83562;SDS011;73535;52.500;13.482;2024-01-07T07:08:10;2.88;;;2.10;;
83562;SDS011;73535;52.500;13.482;2024-01-07T07:10:35;4.03;;;2.10;;
83562;SDS011;73535;52.500;13.482;2024-01-07T07:13:01;3.88;;;2.30;;
83562;SDS011;73535;52.500;13.482;2024-01-07T07:15:26;3.25;;;1.83;;
83562;SDS011;73535;52.500;13.482;2024-01-07T07:20:18;2.67;;;1.93;;
83562;SDS011;73535;52.500;13.482;2024-01-07T07:22:44;2.88;;;1.77;;
83562;SDS011;73535;52.500;13.482;2024-01-07T07:52:47;3.05;;;2.10;;
83562;SDS011;73535;52.500;13.482;2024-01-07T07:55:13;2.80;;;2.30;;
83562;SDS011;73535;52.500;13.482;2024-01-07T07:57:38;4.47;;;2.40;;
83562;SDS011;73535;52.500;13.482;2024-01-07T08:00:04;3.92;;;2.72;;
83562;SDS011;73535;52.500;13.482;2024-01-07T08:04:55;4.43;;;2.67;;
83562;SDS011;73535;52.500;13.482;2024-01-07T08:07:21;2.83;;;2.22;;
83562;SDS011;73535;52.500;13.482;2024-01-07T08:09:46;3.15;;;2.28;;
83562;SDS011;73535;52.500;13.482;2024-01-07T08:12:12;3.58;;;2.42;;
83562;SDS011;73535;52.500;13.482;2024-01-07T08:14:37;3.17;;;2.28;;
83562;SDS011;73535;52.500;13.482;2024-01-07T08:17:05;2.88;;;1.95;;
83562;SDS011;73535;52.500;13.482;2024-01-07T08:19:31;3.38;;;2.05;;
83562;SDS011;73535;52.500;13.482;2024-01-07T08:21:56;3.38;;;2.40;;
83562;SDS011;73535;52.500;13.482;2024-01-07T08:24:21;2.92;;;2.17;;
83562;SDS011;73535;52.500;13.482;2024-01-07T08:26:47;4.20;;;2.78;;
83562;SDS011;73535;52.500;13.482;2024-01-07T08:29:12;4.70;;;2.30;;
83562;SDS011;73535;52.500;13.482;2024-01-07T08:31:37;3.17;;;2.65;;
83562;SDS011;73535;52.500;13.482;2024-01-07T08:34:02;3.88;;;2.33;;
83562;SDS011;73535;52.500;13.482;2024-01-07T08:36:27;4.55;;;2.45;;
83562;SDS011;73535;52.500;13.482;2024-01-07T08:38:54;2.83;;;2.08;;
83562;SDS011;73535;52.500;13.482;2024-01-07T08:41:19;2.75;;;2.15;;
83562;SDS011;73535;52.500;13.482;2024-01-07T08:43:45;4.22;;;2.20;;
83562;SDS011;73535;52.500;13.482;2024-01-07T08:46:11;2.58;;;2.25;;
83562;SDS011;73535;52.500;13.482;2024-01-07T08:48:38;4.85;;;2.00;;
83562;SDS011;73535;52.500;13.482;2024-01-07T08:51:03;3.72;;;2.15;;
83562;SDS011;73535;52.500;13.482;2024-01-07T08:53:29;4.47;;;2.47;;
83562;SDS011;73535;52.500;13.482;2024-01-07T08:55:54;3.08;;;1.98;;
83562;SDS011;73535;52.500;13.482;2024-01-07T08:58:19;3.30;;;2.40;;
83562;SDS011;73535;52.500;13.482;2024-01-07T09:00:44;5.40;;;2.53;;
83562;SDS011;73535;52.500;13.482;2024-01-07T09:03:10;4.80;;;2.78;;
83562;SDS011;73535;52.500;13.482;2024-01-07T09:05:35;4.18;;;2.50;;
83562;SDS011;73535;52.500;13.482;2024-01-07T09:08:01;3.92;;;2.55;;
83562;SDS011;73535;52.500;13.482;2024-01-07T09:10:26;3.22;;;2.58;;
83562;SDS011;73535;52.500;13.482;2024-01-07T09:12:52;4.80;;;2.30;;
83562;SDS011;73535;52.500;13.482;2024-01-07T09:15:18;4.00;;;2.70;;
83562;SDS011;73535;52.500;13.482;2024-01-07T09:17:45;3.83;;;2.63;;
83562;SDS011;73535;52.500;13.482;2024-01-07T09:20:11;5.07;;;2.50;;
83562;SDS011;73535;52.500;13.482;2024-01-07T09:22:36;3.95;;;2.47;;
83562;SDS011;73535;52.500;13.482;2024-01-07T09:25:02;3.90;;;2.83;;
83562;SDS011;73535;52.500;13.482;2024-01-07T09:27:28;3.88;;;2.65;;
83562;SDS011;73535;52.500;13.482;2024-01-07T09:29:53;5.32;;;2.72;;
83562;SDS011;73535;52.500;13.482;2024-01-07T09:32:19;5.10;;;2.90;;
83562;SDS011;73535;52.500;13.482;2024-01-07T09:34:44;4.72;;;2.85;;
83562;SDS011;73535;52.500;13.482;2024-01-07T09:37:09;3.63;;;2.90;;
83562;SDS011;73535;52.500;13.482;2024-01-07T09:39:38;4.05;;;3.13;;
83562;SDS011;73535;52.500;13.482;2024-01-07T09:42:04;4.43;;;2.45;;
83562;SDS011;73535;52.500;13.482;2024-01-07T09:44:31;4.90;;;3.33;;
83562;SDS011;73535;52.500;13.482;2024-01-07T09:46:56;5.40;;;3.90;;
83562;SDS011;73535;52.500;13.482;2024-01-07T09:49:23;5.28;;;3.58;;
83562;SDS011;73535;52.500;13.482;2024-01-07T09:51:48;6.68;;;4.43;;
83562;SDS011;73535;52.500;13.482;2024-01-07T09:54:16;7.47;;;4.72;;
83562;SDS011;73535;52.500;13.482;2024-01-07T09:56:48;5.53;;;4.03;;
83562;SDS011;73535;52.500;13.482;2024-01-07T09:59:18;7.13;;;4.60;;
83562;SDS011;73535;52.500;13.482;2024-01-07T10:01:44;6.22;;;4.00;;
83562;SDS011;73535;52.500;13.482;2024-01-07T10:04:10;7.78;;;4.65;;
83562;SDS011;73535;52.500;13.482;2024-01-07T10:06:36;7.00;;;4.10;;
83562;SDS011;73535;52.500;13.482;2024-01-07T10:09:01;7.78;;;4.82;;
83562;SDS011;73535;52.500;13.482;2024-01-07T10:11:26;7.97;;;4.28;;
83562;SDS011;73535;52.500;13.482;2024-01-07T10:13:51;6.15;;;4.00;;
83562;SDS011;73535;52.500;13.482;2024-01-07T10:16:17;6.80;;;4.40;;
83562;SDS011;73535;52.500;13.482;2024-01-07T10:18:43;6.88;;;4.40;;
83562;SDS011;73535;52.500;13.482;2024-01-07T10:21:08;7.53;;;4.75;;
83562;SDS011;73535;52.500;13.482;2024-01-07T10:23:33;7.78;;;4.65;;
83562;SDS011;73535;52.500;13.482;2024-01-07T10:25:59;6.07;;;3.97;;
83562;SDS011;73535;52.500;13.482;2024-01-07T10:28:24;6.28;;;4.43;;
83562;SDS011;73535;52.500;13.482;2024-01-07T10:30:49;7.55;;;5.22;;
83562;SDS011;73535;52.500;13.482;2024-01-07T10:33:16;11.18;;;5.70;;
83562;SDS011;73535;52.500;13.482;2024-01-07T10:35:42;7.38;;;5.03;;
83562;SDS011;73535;52.500;13.482;2024-01-07T10:38:16;8.85;;;5.10;;
83562;SDS011;73535;52.500;13.482;2024-01-07T10:40:41;6.70;;;4.90;;
83562;SDS011;73535;52.500;13.482;2024-01-07T10:45:33;7.27;;;4.80;;
83562;SDS011;73535;52.500;13.482;2024-01-07T10:47:59;7.07;;;5.10;;
83562;SDS011;73535;52.500;13.482;2024-01-07T10:50:28;6.57;;;4.70;;
83562;SDS011;73535;52.500;13.482;2024-01-07T10:52:58;7.60;;;5.18;;
83562;SDS011;73535;52.500;13.482;2024-01-07T10:55:31;6.95;;;5.30;;
83562;SDS011;73535;52.500;13.482;2024-01-07T10:58:01;6.65;;;4.80;;
83562;SDS011;73535;52.500;13.482;2024-01-07T11:00:27;7.18;;;4.70;;
83562;SDS011;73535;52.500;13.482;2024-01-07T11:05:58;7.03;;;4.55;;
83562;SDS011;73535;52.500;13.482;2024-01-07T11:11:25;7.82;;;5.28;;
83562;SDS011;73535;52.500;13.482;2024-01-07T11:13:52;8.32;;;5.63;;
83562;SDS011;73535;52.500;13.482;2024-01-07T11:19:09;7.38;;;5.32;;
83562;SDS011;73535;52.500;13.482;2024-01-07T11:21:34;8.25;;;4.90;;
83562;SDS011;73535;52.500;13.482;2024-01-07T11:23:59;7.47;;;5.47;;
83562;SDS011;73535;52.500;13.482;2024-01-07T11:26:27;8.98;;;5.13;;
83562;SDS011;73535;52.500;13.482;2024-01-07T11:28:55;7.10;;;5.35;;
83562;SDS011;73535;52.500;13.482;2024-01-07T11:34:06;7.70;;;5.38;;
83562;SDS011;73535;52.500;13.482;2024-01-07T11:36:33;7.05;;;4.10;;
83562;SDS011;73535;52.500;13.482;2024-01-07T11:39:00;6.75;;;4.28;;
83562;SDS011;73535;52.500;13.482;2024-01-07T11:41:27;7.82;;;5.07;;
83562;SDS011;73535;52.500;13.482;2024-01-07T11:43:54;7.95;;;5.60;;
83562;SDS011;73535;52.500;13.482;2024-01-07T11:46:26;7.10;;;4.90;;
83562;SDS011;73535;52.500;13.482;2024-01-07T11:48:53;7.60;;;5.10;;
83562;SDS011;73535;52.500;13.482;2024-01-07T11:51:23;6.55;;;5.15;;
83562;SDS011;73535;52.500;13.482;2024-01-07T11:53:49;6.32;;;4.40;;
83562;SDS011;73535;52.500;13.482;2024-01-07T11:56:15;5.82;;;4.20;;
83562;SDS011;73535;52.500;13.482;2024-01-07T11:58:40;6.28;;;4.57;;
83562;SDS011;73535;52.500;13.482;2024-01-07T12:01:07;6.13;;;4.80;;
83562;SDS011;73535;52.500;13.482;2024-01-07T12:03:32;6.55;;;4.97;;
83562;SDS011;73535;52.500;13.482;2024-01-07T12:05:57;6.72;;;4.65;;
83562;SDS011;73535;52.500;13.482;2024-01-07T12:08:22;7.57;;;4.40;;
83562;SDS011;73535;52.500;13.482;2024-01-07T12:10:48;6.80;;;4.53;;
83562;SDS011;73535;52.500;13.482;2024-01-07T12:13:14;5.03;;;4.10;;
83562;SDS011;73535;52.500;13.482;2024-01-07T12:15:40;7.50;;;4.50;;
83562;SDS011;73535;52.500;13.482;2024-01-07T12:18:05;5.85;;;4.80;;
83562;SDS011;73535;52.500;13.482;2024-01-07T12:20:31;8.68;;;5.10;;
83562;SDS011;73535;52.500;13.482;2024-01-07T12:22:56;7.40;;;4.47;;
83562;SDS011;73535;52.500;13.482;2024-01-07T12:25:24;6.45;;;5.20;;
83562;SDS011;73535;52.500;13.482;2024-01-07T12:27:49;6.57;;;4.55;;
83562;SDS011;73535;52.500;13.482;2024-01-07T12:30:18;6.32;;;4.97;;
83562;SDS011;73535;52.500;13.482;2024-01-07T12:32:44;7.25;;;4.65;;
83562;SDS011;73535;52.500;13.482;2024-01-07T12:35:09;6.72;;;4.45;;
83562;SDS011;73535;52.500;13.482;2024-01-07T12:37:37;6.30;;;4.53;;
83562;SDS011;73535;52.500;13.482;2024-01-07T12:40:02;6.32;;;4.47;;
83562;SDS011;73535;52.500;13.482;2024-01-07T12:42:28;6.05;;;3.55;;
83562;SDS011;73535;52.500;13.482;2024-01-07T12:44:53;6.03;;;5.03;;
83562;SDS011;73535;52.500;13.482;2024-01-07T12:47:19;6.90;;;4.53;;
83562;SDS011;73535;52.500;13.482;2024-01-07T12:49:44;5.97;;;4.75;;
83562;SDS011;73535;52.500;13.482;2024-01-07T12:52:09;6.10;;;4.75;;
83562;SDS011;73535;52.500;13.482;2024-01-07T12:54:35;7.43;;;5.30;;
83562;SDS011;73535;52.500;13.482;2024-01-07T12:57:00;5.80;;;4.30;;
83562;SDS011;73535;52.500;13.482;2024-01-07T12:59:25;8.30;;;5.15;;
83562;SDS011;73535;52.500;13.482;2024-01-07T13:01:51;6.50;;;5.05;;
83562;SDS011;73535;52.500;13.482;2024-01-07T13:04:17;6.97;;;5.47;;
83562;SDS011;73535;52.500;13.482;2024-01-07T13:06:42;6.03;;;5.05;;
83562;SDS011;73535;52.500;13.482;2024-01-07T13:09:07;7.18;;;4.38;;
83562;SDS011;73535;52.500;13.482;2024-01-07T13:11:34;7.13;;;5.00;;
83562;SDS011;73535;52.500;13.482;2024-01-07T13:13:59;8.05;;;5.68;;
83562;SDS011;73535;52.500;13.482;2024-01-07T13:16:26;7.28;;;4.80;;
83562;SDS011;73535;52.500;13.482;2024-01-07T13:18:52;6.60;;;4.68;;
83562;SDS011;73535;52.500;13.482;2024-01-07T13:21:17;6.00;;;4.32;;
83562;SDS011;73535;52.500;13.482;2024-01-07T13:23:43;7.88;;;5.97;;
83562;SDS011;73535;52.500;13.482;2024-01-07T13:26:09;11.02;;;7.00;;
83562;SDS011;73535;52.500;13.482;2024-01-07T13:28:35;5.82;;;5.10;;
83562;SDS011;73535;52.500;13.482;2024-01-07T13:31:00;9.35;;;6.57;;
83562;SDS011;73535;52.500;13.482;2024-01-07T13:33:25;7.90;;;5.18;;
83562;SDS011;73535;52.500;13.482;2024-01-07T13:35:50;6.15;;;4.88;;
83562;SDS011;73535;52.500;13.482;2024-01-07T13:38:16;5.85;;;4.20;;
83562;SDS011;73535;52.500;13.482;2024-01-07T13:40:41;4.65;;;3.92;;
83562;SDS011;73535;52.500;13.482;2024-01-07T13:43:06;6.45;;;4.53;;
83562;SDS011;73535;52.500;13.482;2024-01-07T13:45:31;6.32;;;4.88;;
83562;SDS011;73535;52.500;13.482;2024-01-07T13:47:57;7.07;;;5.95;;
83562;SDS011;73535;52.500;13.482;2024-01-07T13:50:22;23.88;;;15.25;;
83562;SDS011;73535;52.500;13.482;2024-01-07T13:52:47;42.25;;;25.83;;
83562;SDS011;73535;52.500;13.482;2024-01-07T13:55:12;23.48;;;14.52;;
83562;SDS011;73535;52.500;13.482;2024-01-07T13:57:38;8.20;;;5.93;;
83562;SDS011;73535;52.500;13.482;2024-01-07T14:00:03;6.40;;;4.88;;
83562;SDS011;73535;52.500;13.482;2024-01-07T14:02:39;10.90;;;5.72;;
83562;SDS011;73535;52.500;13.482;2024-01-07T14:05:05;25.40;;;16.13;;
83562;SDS011;73535;52.500;13.482;2024-01-07T14:07:31;19.67;;;12.45;;
83562;SDS011;73535;52.500;13.482;2024-01-07T14:09:57;10.63;;;5.57;;
83562;SDS011;73535;52.500;13.482;2024-01-07T14:12:23;4.32;;;3.13;;
83562;SDS011;73535;52.500;13.482;2024-01-07T14:14:49;7.63;;;4.72;;
83562;SDS011;73535;52.500;13.482;2024-01-07T14:17:14;5.47;;;4.38;;
83562;SDS011;73535;52.500;13.482;2024-01-07T14:19:39;10.15;;;5.63;;
83562;SDS011;73535;52.500;13.482;2024-01-07T14:22:05;5.03;;;3.08;;
83562;SDS011;73535;52.500;13.482;2024-01-07T14:24:30;3.47;;;2.70;;
83562;SDS011;73535;52.500;13.482;2024-01-07T14:26:55;3.85;;;2.90;;
83562;SDS011;73535;52.500;13.482;2024-01-07T14:29:21;6.35;;;4.07;;
83562;SDS011;73535;52.500;13.482;2024-01-07T14:31:46;3.58;;;3.28;;
83562;SDS011;73535;52.500;13.482;2024-01-07T14:34:11;3.47;;;2.53;;
83562;SDS011;73535;52.500;13.482;2024-01-07T14:36:40;3.28;;;2.70;;
83562;SDS011;73535;52.500;13.482;2024-01-07T14:39:08;5.03;;;3.17;;
83562;SDS011;73535;52.500;13.482;2024-01-07T14:41:34;3.70;;;2.70;;
83562;SDS011;73535;52.500;13.482;2024-01-07T14:44:00;4.05;;;2.53;;
83562;SDS011;73535;52.500;13.482;2024-01-07T14:46:25;4.80;;;2.05;;
83562;SDS011;73535;52.500;13.482;2024-01-07T14:48:50;22.20;;;11.57;;
83562;SDS011;73535;52.500;13.482;2024-01-07T14:51:15;3.85;;;2.40;;
83562;SDS011;73535;52.500;13.482;2024-01-07T14:53:41;4.03;;;2.50;;
83562;SDS011;73535;52.500;13.482;2024-01-07T14:56:06;3.22;;;2.80;;
83562;SDS011;73535;52.500;13.482;2024-01-07T14:58:32;2.97;;;2.67;;
83562;SDS011;73535;52.500;13.482;2024-01-07T15:00:57;4.00;;;3.22;;
83562;SDS011;73535;52.500;13.482;2024-01-07T15:03:23;3.85;;;3.17;;
83562;SDS011;73535;52.500;13.482;2024-01-07T15:05:48;3.35;;;2.78;;
83562;SDS011;73535;52.500;13.482;2024-01-07T15:08:13;3.95;;;2.95;;
83562;SDS011;73535;52.500;13.482;2024-01-07T15:10:39;6.03;;;3.35;;